Durham, New Hampshire
Current Conditions -  °F | °C
As of 1:58 PM on Tuesday 21 Oct 2014 (Local Time) from KPSM Reporting Station
Overcast Overcast  
Wind Chill: 59°   Ceiling: 900
Heat Index: 59°   Visibility: 10mi
Dew Point: 54°   Wind: 8mph
Humidity: 83%   Direction: 80°E
Pressure: 29.94"   Gusts: NA
Location:  43.13°N, 70.92°W
Report Text: KPSM 211758Z 08007KT 10SM BKN009 OVC015 15/12 A2994 RMK AO2A SLP142 T01510123 10153 20089 57015
Loading
Personal Weather Stations






























Interactive Weather Map New forecast layout! Learn more

10-Day Weather Forecast

Advertisements
Track Severe Weather on mobile